createdAt,value
2023-01-19T00:01:35.225Z,13.82
2023-01-19T00:04:01.639Z,13.75
2023-01-19T00:06:28.474Z,12.98
2023-01-19T00:08:55.079Z,14.27
2023-01-19T00:11:21.513Z,14.98
2023-01-19T00:13:51.124Z,16.95
2023-01-19T00:16:19.391Z,14.15
2023-01-19T00:18:46.288Z,11.95
2023-01-19T00:21:14.802Z,13.45
2023-01-19T00:23:41.980Z,13.60
2023-01-19T00:26:08.778Z,15.30
2023-01-19T00:28:35.337Z,12.40
2023-01-19T00:31:01.859Z,13.43
2023-01-19T00:33:28.445Z,12.55
2023-01-19T00:35:57.515Z,16.30
2023-01-19T00:38:24.001Z,11.65
2023-01-19T00:40:50.532Z,14.43
2023-01-19T00:43:16.957Z,13.63
2023-01-19T00:45:43.400Z,15.40
2023-01-19T00:48:09.910Z,13.25
2023-01-19T00:50:36.443Z,13.13
2023-01-19T00:53:03.422Z,14.00
2023-01-19T00:55:31.474Z,11.80
2023-01-19T00:57:57.956Z,13.95
2023-01-19T01:00:25.019Z,19.17
2023-01-19T01:02:52.885Z,14.00
2023-01-19T01:05:20.051Z,15.23
2023-01-19T01:07:49.366Z,14.88
2023-01-19T01:10:21.865Z,20.58
2023-01-19T01:12:57.577Z,15.30
2023-01-19T01:15:26.930Z,13.02
2023-01-19T01:17:53.572Z,14.35
2023-01-19T01:20:26.974Z,16.48
2023-01-19T01:22:54.805Z,14.30
2023-01-19T01:25:23.025Z,14.15
2023-01-19T01:27:50.164Z,14.27
2023-01-19T01:30:16.930Z,14.30
2023-01-19T01:32:43.722Z,16.85
2023-01-19T01:35:10.919Z,13.32
2023-01-19T01:37:37.487Z,17.95
2023-01-19T01:40:06.113Z,16.80
2023-01-19T01:42:33.914Z,16.67
2023-01-19T01:45:03.421Z,16.00
2023-01-19T01:47:33.127Z,12.23
2023-01-19T01:50:05.501Z,18.85
2023-01-19T01:52:34.858Z,13.55
2023-01-19T01:55:02.915Z,12.30
2023-01-19T01:57:29.826Z,14.68
2023-01-19T01:59:57.132Z,15.75
2023-01-19T02:02:44.858Z,13.02
2023-01-19T02:05:16.686Z,14.02
2023-01-19T02:08:06.263Z,16.90
2023-01-19T02:10:51.918Z,14.30
2023-01-19T02:13:22.987Z,14.45
2023-01-19T02:15:59.522Z,15.20
2023-01-19T02:18:30.829Z,13.38
2023-01-19T02:21:13.161Z,14.68
2023-01-19T02:23:45.789Z,17.95
2023-01-19T02:26:16.059Z,15.43
2023-01-19T02:28:46.774Z,16.10
2023-01-19T02:31:15.039Z,14.77
2023-01-19T02:33:41.761Z,16.75
2023-01-19T02:36:10.216Z,15.52
2023-01-19T02:38:38.402Z,13.15
2023-01-19T02:41:06.651Z,16.33
2023-01-19T02:43:33.424Z,12.60
2023-01-19T02:45:59.883Z,18.40
2023-01-19T02:48:26.506Z,13.02
2023-01-19T02:51:17.755Z,11.15
2023-01-19T02:54:05.485Z,14.88
2023-01-19T02:56:32.352Z,15.93
2023-01-19T02:59:10.041Z,14.45
2023-01-19T03:01:48.594Z,14.52
2023-01-19T03:04:42.184Z,16.52
2023-01-19T03:07:16.660Z,14.77
2023-01-19T03:10:21.255Z,13.90
2023-01-19T03:12:58.792Z,13.75
2023-01-19T03:15:30.636Z,14.32
2023-01-19T03:17:58.261Z,15.00
2023-01-19T03:20:25.670Z,14.38
2023-01-19T03:22:56.183Z,13.63
2023-01-19T03:25:23.419Z,17.20
2023-01-19T03:27:51.254Z,12.80
2023-01-19T03:30:22.942Z,15.13
2023-01-19T03:33:03.180Z,14.23
2023-01-19T03:35:32.387Z,12.90
2023-01-19T03:38:01.042Z,13.00
2023-01-19T03:40:29.781Z,12.95
2023-01-19T03:42:56.684Z,13.93
2023-01-19T03:45:23.532Z,13.80
2023-01-19T03:47:50.225Z,14.02
2023-01-19T03:50:29.531Z,10.40
2023-01-19T03:53:06.697Z,12.32
2023-01-19T03:55:34.169Z,12.98
2023-01-19T03:58:00.611Z,17.55
2023-01-19T04:00:27.076Z,12.10
2023-01-19T04:02:53.640Z,25.00
2023-01-19T04:05:20.118Z,9.88
2023-01-19T04:07:49.336Z,16.05
2023-01-19T04:10:17.497Z,11.27
2023-01-19T04:12:44.269Z,11.88
2023-01-19T04:15:10.974Z,12.77
2023-01-19T04:17:38.406Z,15.90
2023-01-19T04:20:06.007Z,11.57
2023-01-19T04:22:32.582Z,12.93
2023-01-19T04:24:59.200Z,12.98
2023-01-19T04:27:26.116Z,15.93
2023-01-19T04:29:52.866Z,9.52
2023-01-19T04:32:19.696Z,15.45
2023-01-19T04:34:46.113Z,14.73
2023-01-19T04:37:12.655Z,20.08
2023-01-19T04:39:39.134Z,12.48
2023-01-19T04:42:06.365Z,17.70
2023-01-19T04:44:39.057Z,16.95
2023-01-19T04:47:05.517Z,13.95
2023-01-19T04:49:31.981Z,20.13
2023-01-19T04:51:59.481Z,19.08
2023-01-19T04:54:26.956Z,17.08
2023-01-19T04:56:53.426Z,24.83
2023-01-19T04:59:20.455Z,18.50
2023-01-19T05:01:53.200Z,18.52
2023-01-19T05:04:19.802Z,22.15
2023-01-19T05:06:49.798Z,19.77
2023-01-19T05:09:16.855Z,21.27
2023-01-19T05:11:43.366Z,20.15
2023-01-19T05:14:09.850Z,19.42
2023-01-19T05:16:36.323Z,19.30
2023-01-19T05:19:03.057Z,20.50
2023-01-19T05:21:29.719Z,18.17
2023-01-19T05:23:56.255Z,18.23
2023-01-19T05:26:22.912Z,21.52
2023-01-19T05:28:50.295Z,16.50
2023-01-19T05:31:18.661Z,16.38
2023-01-19T05:33:45.982Z,16.83
2023-01-19T05:36:12.367Z,19.20
2023-01-19T05:38:39.055Z,16.92
2023-01-19T05:41:05.661Z,17.27
2023-01-19T05:43:32.262Z,17.02
2023-01-19T05:45:58.908Z,17.88
2023-01-19T05:48:25.503Z,18.13
2023-01-19T05:50:57.356Z,15.82
2023-01-19T05:53:23.825Z,19.05
2023-01-19T05:55:50.261Z,18.42
2023-01-19T05:58:16.944Z,20.02
2023-01-19T06:00:43.511Z,17.63
2023-01-19T06:03:10.024Z,20.25
2023-01-19T06:05:38.421Z,17.17
2023-01-19T06:08:05.302Z,14.60
2023-01-19T06:10:31.755Z,18.75
2023-01-19T06:13:01.705Z,15.73
2023-01-19T06:15:28.566Z,14.07
2023-01-19T06:17:55.383Z,19.05
2023-01-19T06:20:24.178Z,16.65
2023-01-19T06:22:50.759Z,14.68
2023-01-19T06:25:17.206Z,14.60
2023-01-19T06:27:45.116Z,15.02
2023-01-19T06:30:12.455Z,14.57
2023-01-19T06:32:38.869Z,12.52
2023-01-19T06:35:07.815Z,15.85
2023-01-19T06:37:35.094Z,15.20
2023-01-19T06:40:01.712Z,12.20
2023-01-19T06:42:28.190Z,15.13
2023-01-19T06:44:54.673Z,14.25
2023-01-19T06:47:21.118Z,15.98
2023-01-19T06:49:48.178Z,14.07
2023-01-19T06:52:17.367Z,15.43
2023-01-19T06:54:46.964Z,13.45
2023-01-19T06:57:14.241Z,15.05
2023-01-19T06:59:41.007Z,15.65
2023-01-19T07:02:26.947Z,19.50
2023-01-19T07:04:54.075Z,12.88
2023-01-19T07:07:20.527Z,13.75
2023-01-19T07:09:46.996Z,13.80
2023-01-19T07:12:14.616Z,15.88
2023-01-19T07:14:41.093Z,13.65
2023-01-19T07:17:07.772Z,12.98
2023-01-19T07:19:35.274Z,14.02
2023-01-19T07:22:03.254Z,13.88
2023-01-19T07:24:34.163Z,12.23
2023-01-19T07:29:27.007Z,14.25
2023-01-19T07:31:54.687Z,15.57
2023-01-19T07:34:21.558Z,13.05
2023-01-19T07:36:48.092Z,13.98
2023-01-19T07:39:14.860Z,15.52
2023-01-19T07:41:41.369Z,14.00
2023-01-19T07:44:08.800Z,19.85
2023-01-19T07:46:35.240Z,17.50
2023-01-19T07:49:01.678Z,19.20
2023-01-19T07:51:28.102Z,21.17
2023-01-19T07:53:54.551Z,20.60
2023-01-19T07:56:21.985Z,22.35
2023-01-19T07:58:50.376Z,19.95
2023-01-19T08:01:16.988Z,22.48
2023-01-19T08:03:43.848Z,21.70
2023-01-19T08:06:19.669Z,25.00
2023-01-19T08:08:46.178Z,26.80
2023-01-19T08:11:12.631Z,23.00
2023-01-19T08:13:39.127Z,31.30
2023-01-19T08:16:06.279Z,26.58
2023-01-19T08:18:33.100Z,28.30
2023-01-19T08:21:00.417Z,25.35
2023-01-19T08:23:29.858Z,24.63
2023-01-19T08:25:56.373Z,25.25
2023-01-19T08:28:22.957Z,26.00
2023-01-19T08:30:54.626Z,33.17
2023-01-19T08:33:22.978Z,25.95
2023-01-19T08:35:51.800Z,26.27
2023-01-19T08:38:18.475Z,22.08
2023-01-19T08:40:45.428Z,27.70
2023-01-19T08:43:15.101Z,25.92
2023-01-19T08:45:48.418Z,28.60
2023-01-19T08:48:16.703Z,26.38
2023-01-19T08:50:46.105Z,29.45
2023-01-19T08:53:12.588Z,27.00
2023-01-19T08:55:39.217Z,31.70
2023-01-19T08:58:06.366Z,29.88
2023-01-19T09:00:37.948Z,33.28
2023-01-19T09:03:05.891Z,33.72
2023-01-19T09:05:37.127Z,33.42
2023-01-19T09:08:11.186Z,32.22
2023-01-19T09:10:39.134Z,33.58
2023-01-19T09:13:08.284Z,33.58
2023-01-19T09:15:37.483Z,34.63
2023-01-19T09:18:05.896Z,38.85
2023-01-19T09:20:34.598Z,40.72
2023-01-19T09:23:01.074Z,37.53
2023-01-19T09:25:27.648Z,38.42
2023-01-19T09:27:56.042Z,44.92
2023-01-19T09:30:22.533Z,45.65
2023-01-19T09:32:48.932Z,39.95
2023-01-19T09:35:15.488Z,41.47
2023-01-19T09:37:46.164Z,42.33
2023-01-19T09:40:13.573Z,33.85
2023-01-19T09:42:44.940Z,42.08
2023-01-19T09:45:19.110Z,43.20
2023-01-19T09:47:46.951Z,46.80
2023-01-19T09:50:24.022Z,33.05
2023-01-19T09:52:56.460Z,42.13
2023-01-19T09:55:26.223Z,44.58
2023-01-19T09:57:53.612Z,33.25
2023-01-19T10:00:20.582Z,51.40
2023-01-19T10:02:53.042Z,38.03
2023-01-19T10:05:31.738Z,48.88
2023-01-19T10:08:09.606Z,47.67
2023-01-19T10:10:37.676Z,48.00
2023-01-19T10:13:19.067Z,34.72
2023-01-19T10:15:48.533Z,43.47
2023-01-19T10:18:32.988Z,47.85
2023-01-19T10:21:05.545Z,43.60
2023-01-19T10:23:36.568Z,45.20
2023-01-19T10:26:25.809Z,32.60
2023-01-19T10:29:22.486Z,40.55
2023-01-19T10:31:51.966Z,42.42
2023-01-19T10:34:23.622Z,42.88
2023-01-19T10:36:54.763Z,42.40
2023-01-19T10:39:21.291Z,40.42
2023-01-19T10:41:51.340Z,39.40
2023-01-19T10:44:29.149Z,37.27
2023-01-19T10:46:57.757Z,45.50
2023-01-19T10:49:33.773Z,54.60
2023-01-19T10:52:00.655Z,36.10
2023-01-19T10:54:28.363Z,48.85
2023-01-19T10:56:59.377Z,47.28
2023-01-19T11:02:18.496Z,43.53
2023-01-19T11:04:47.333Z,51.95
2023-01-19T11:07:22.991Z,38.53
2023-01-19T11:09:50.053Z,32.83
2023-01-19T11:12:18.552Z,48.28
2023-01-19T11:14:45.706Z,45.65
2023-01-19T11:17:20.520Z,38.40
2023-01-19T11:19:58.943Z,46.60
2023-01-19T11:22:34.575Z,52.05
2023-01-19T11:25:03.361Z,55.80
2023-01-19T11:27:31.688Z,46.65
2023-01-19T11:30:10.491Z,45.92
2023-01-19T11:32:37.249Z,51.40
2023-01-19T11:35:37.617Z,50.58
2023-01-19T11:38:13.067Z,48.67
2023-01-19T11:40:40.058Z,61.80
2023-01-19T11:43:11.468Z,42.72
2023-01-19T11:45:39.014Z,50.78
2023-01-19T11:48:06.075Z,55.03
2023-01-19T11:50:41.230Z,50.80
2023-01-19T11:53:33.259Z,39.90
2023-01-19T11:56:09.965Z,54.25
2023-01-19T11:58:42.270Z,37.20
2023-01-19T12:01:39.257Z,49.20
2023-01-19T12:04:33.505Z,41.70
2023-01-19T12:07:07.049Z,57.40
2023-01-19T12:09:36.778Z,49.67
2023-01-19T12:12:06.278Z,55.80
2023-01-19T12:14:43.110Z,48.88
2023-01-19T12:17:21.651Z,58.45
2023-01-19T12:19:56.459Z,58.90
2023-01-19T12:22:24.004Z,50.58
2023-01-19T12:24:58.580Z,64.70
2023-01-19T12:27:45.543Z,50.17
2023-01-19T12:30:24.002Z,82.32
2023-01-19T12:32:51.301Z,67.25
2023-01-19T12:35:56.893Z,60.40
2023-01-19T12:38:49.599Z,71.82
2023-01-19T12:41:25.103Z,60.22
2023-01-19T12:44:10.633Z,58.75
2023-01-19T12:46:41.683Z,64.68
2023-01-19T12:49:20.482Z,56.30
2023-01-19T12:51:47.759Z,51.33
2023-01-19T12:54:31.483Z,66.10
2023-01-19T12:57:08.594Z,66.78
2023-01-19T12:59:36.522Z,50.97
2023-01-19T13:02:18.314Z,68.43
2023-01-19T13:05:06.656Z,59.00
2023-01-19T13:08:07.869Z,66.50
2023-01-19T13:13:31.876Z,62.17
2023-01-19T13:16:18.412Z,61.40
2023-01-19T13:18:48.521Z,66.13
2023-01-19T13:21:30.428Z,61.97
2023-01-19T13:24:00.999Z,69.00
2023-01-19T13:26:29.907Z,68.68
2023-01-19T13:29:03.595Z,70.65
2023-01-19T13:31:38.084Z,64.05
2023-01-19T13:34:11.173Z,59.80
2023-01-19T13:36:41.269Z,66.05
2023-01-19T13:39:13.456Z,68.22
2023-01-19T13:41:41.408Z,63.25
2023-01-19T13:44:51.294Z,49.58
2023-01-19T13:47:36.114Z,56.47
2023-01-19T13:50:03.044Z,60.83
2023-01-19T13:52:29.843Z,63.53
2023-01-19T13:55:05.753Z,71.80
2023-01-19T13:57:38.438Z,57.55
2023-01-19T14:00:17.099Z,56.58
2023-01-19T14:03:11.373Z,56.35
2023-01-19T14:05:42.346Z,52.67
2023-01-19T14:10:36.716Z,47.33
2023-01-19T14:13:05.832Z,46.35
2023-01-19T14:15:34.258Z,56.20
2023-01-19T14:18:19.121Z,50.72
2023-01-19T14:21:02.758Z,49.78
2023-01-19T14:23:50.934Z,49.55
2023-01-19T14:26:43.067Z,47.08
2023-01-19T14:29:21.562Z,42.97
2023-01-19T14:32:05.323Z,47.13
2023-01-19T14:34:38.056Z,42.38
2023-01-19T14:37:31.635Z,43.30
2023-01-19T14:40:04.639Z,39.85
2023-01-19T14:42:33.956Z,41.40
2023-01-19T14:45:02.081Z,45.78
2023-01-19T14:47:33.311Z,47.80
2023-01-19T14:50:04.887Z,40.85
2023-01-19T14:52:35.258Z,47.97
2023-01-19T14:55:06.855Z,42.05
2023-01-19T14:57:36.144Z,37.85
2023-01-19T15:00:12.416Z,39.88
2023-01-19T15:02:39.009Z,31.50
2023-01-19T15:05:06.156Z,36.95
2023-01-19T15:07:32.717Z,40.13
2023-01-19T15:09:59.379Z,39.08
2023-01-19T15:12:27.733Z,32.13
2023-01-19T15:14:54.186Z,35.30
2023-01-19T15:17:27.516Z,33.38
2023-01-19T15:19:56.202Z,37.40
2023-01-19T15:22:26.734Z,37.72
2023-01-19T15:24:57.429Z,35.05
2023-01-19T15:27:24.270Z,34.65
2023-01-19T15:29:50.795Z,35.95
2023-01-19T15:32:17.266Z,33.10
2023-01-19T15:34:43.710Z,31.67
2023-01-19T15:37:10.217Z,32.38
2023-01-19T15:39:36.695Z,35.22
2023-01-19T15:42:05.547Z,34.58
2023-01-19T15:44:32.099Z,36.08
2023-01-19T15:46:58.809Z,31.95
2023-01-19T15:49:26.184Z,34.25
2023-01-19T15:51:52.895Z,32.47
2023-01-19T15:54:19.510Z,34.50
2023-01-19T15:56:46.244Z,39.58
2023-01-19T15:59:12.766Z,25.27
2023-01-19T16:01:40.326Z,38.13
2023-01-19T16:04:09.476Z,36.88
2023-01-19T16:06:35.893Z,33.63
2023-01-19T16:09:03.814Z,28.65
2023-01-19T16:11:33.386Z,29.08
2023-01-19T16:14:00.061Z,31.05
2023-01-19T16:16:28.017Z,34.75
2023-01-19T16:18:54.844Z,30.23
2023-01-19T16:21:21.529Z,34.78
2023-01-19T16:23:48.037Z,30.63
2023-01-19T16:26:41.031Z,34.33
2023-01-19T16:29:09.800Z,24.73
2023-01-19T16:31:41.376Z,30.20
2023-01-19T16:34:08.485Z,24.95
2023-01-19T16:36:54.048Z,27.00
2023-01-19T16:39:20.541Z,31.80
2023-01-19T16:41:47.032Z,22.80
2023-01-19T16:44:15.377Z,44.75
2023-01-19T16:46:44.422Z,33.92
2023-01-19T16:49:13.966Z,28.77
2023-01-19T16:51:40.871Z,24.40
2023-01-19T16:54:07.474Z,32.72
2023-01-19T16:56:33.931Z,30.95
2023-01-19T16:59:00.439Z,23.17
2023-01-19T17:01:28.445Z,26.08
2023-01-19T17:03:55.500Z,19.67
2023-01-19T17:06:24.653Z,26.38
2023-01-19T17:08:52.377Z,20.60
2023-01-19T17:11:24.787Z,27.10
2023-01-19T17:13:56.248Z,24.90
2023-01-19T17:16:26.702Z,26.95
2023-01-19T17:18:53.885Z,25.98
2023-01-19T17:21:20.511Z,26.27
2023-01-19T17:23:48.942Z,31.48
2023-01-19T17:26:16.185Z,24.58
2023-01-19T17:28:43.150Z,26.88
2023-01-19T17:31:14.805Z,26.08
2023-01-19T17:33:44.219Z,31.73
2023-01-19T17:36:13.307Z,24.35
2023-01-19T17:38:40.146Z,29.85
2023-01-19T17:41:18.125Z,28.17
2023-01-19T17:43:45.308Z,25.65
2023-01-19T17:46:13.513Z,31.30
2023-01-19T17:48:40.413Z,25.83
2023-01-19T17:51:13.890Z,37.53
2023-01-19T17:53:41.143Z,29.25
2023-01-19T17:56:12.633Z,27.60
2023-01-19T17:58:39.635Z,32.03
2023-01-19T18:01:13.291Z,30.75
2023-01-19T18:03:40.256Z,32.65
2023-01-19T18:06:07.243Z,34.90
2023-01-19T18:08:34.711Z,30.42
2023-01-19T18:11:01.907Z,31.00
2023-01-19T18:13:28.867Z,31.38
2023-01-19T18:16:00.073Z,38.28
2023-01-19T18:18:26.873Z,37.72
2023-01-19T18:20:53.470Z,38.20
2023-01-19T18:23:19.993Z,40.35
2023-01-19T18:25:46.555Z,37.22
2023-01-19T18:28:12.994Z,36.53
2023-01-19T18:30:39.548Z,47.03
2023-01-19T18:33:06.314Z,36.70
2023-01-19T18:35:32.825Z,40.78
2023-01-19T18:37:59.359Z,40.40
2023-01-19T18:40:25.937Z,36.00
2023-01-19T18:42:52.383Z,34.22
2023-01-19T18:45:24.709Z,37.15
2023-01-19T18:47:51.211Z,41.35
2023-01-19T18:50:18.925Z,25.92
2023-01-19T18:52:48.736Z,36.03
2023-01-19T18:55:15.179Z,35.65
2023-01-19T18:57:41.635Z,42.17
2023-01-19T19:00:08.698Z,31.80
2023-01-19T19:02:35.153Z,32.17
2023-01-19T19:05:02.754Z,31.00
2023-01-19T19:07:29.421Z,36.85
2023-01-19T19:09:55.864Z,37.05
2023-01-19T19:12:22.450Z,27.98
2023-01-19T19:14:48.896Z,33.17
2023-01-19T19:17:15.340Z,34.38
2023-01-19T19:19:41.876Z,34.92
2023-01-19T19:22:08.313Z,32.83
2023-01-19T19:24:35.394Z,23.35
2023-01-19T19:27:01.791Z,31.00
2023-01-19T19:29:28.537Z,31.17
2023-01-19T19:31:58.906Z,29.23
2023-01-19T19:34:25.595Z,33.17
2023-01-19T19:36:52.142Z,33.20
2023-01-19T19:39:18.625Z,34.95
2023-01-19T19:41:45.221Z,36.30
2023-01-19T19:44:14.639Z,35.42
2023-01-19T19:46:41.404Z,30.42
2023-01-19T19:49:07.918Z,24.20
2023-01-19T19:51:34.390Z,39.58
2023-01-19T19:54:01.217Z,30.75
2023-01-19T19:56:29.469Z,36.30
2023-01-19T19:58:57.174Z,24.23
2023-01-19T20:01:28.553Z,37.63
2023-01-19T20:03:56.917Z,34.95
2023-01-19T20:06:25.356Z,29.55
2023-01-19T20:08:54.247Z,33.33
2023-01-19T20:11:22.979Z,29.83
2023-01-19T20:13:50.743Z,49.00
2023-01-19T20:16:19.485Z,28.88
2023-01-19T20:18:48.569Z,29.45
2023-01-19T20:21:22.307Z,25.80
2023-01-19T20:23:50.401Z,30.30
2023-01-19T20:26:19.464Z,32.00
2023-01-19T20:28:46.029Z,33.72
2023-01-19T20:31:19.013Z,22.50
2023-01-19T20:33:46.796Z,29.17
2023-01-19T20:36:13.532Z,23.52
2023-01-19T20:38:40.553Z,32.10
2023-01-19T20:41:08.970Z,23.60
2023-01-19T20:43:35.532Z,26.75
2023-01-19T20:46:02.326Z,19.42
2023-01-19T20:48:28.931Z,27.38
2023-01-19T20:51:04.781Z,29.35
2023-01-19T20:53:32.019Z,31.67
2023-01-19T20:55:58.760Z,27.85
2023-01-19T20:58:25.265Z,32.58
2023-01-19T21:00:51.823Z,31.63
2023-01-19T21:03:18.281Z,28.48
2023-01-19T21:05:47.514Z,29.60
2023-01-19T21:08:14.803Z,22.52
2023-01-19T21:10:41.957Z,26.95
2023-01-19T21:13:08.872Z,28.92
2023-01-19T21:15:35.322Z,29.08
2023-01-19T21:18:01.842Z,26.90
2023-01-19T21:20:32.958Z,33.20
2023-01-19T21:22:59.411Z,19.73
2023-01-19T21:25:26.057Z,31.30
2023-01-19T21:27:52.467Z,27.42
2023-01-19T21:30:19.013Z,29.92
2023-01-19T21:32:45.496Z,29.17
2023-01-19T21:35:12.330Z,34.42
2023-01-19T21:37:38.977Z,25.85
2023-01-19T21:40:06.140Z,27.60
2023-01-19T21:42:32.649Z,32.22
2023-01-19T21:44:59.056Z,33.05
2023-01-19T21:47:25.549Z,29.40
2023-01-19T21:49:52.005Z,27.35
2023-01-19T21:52:18.442Z,30.17
2023-01-19T21:54:44.875Z,32.10
2023-01-19T21:57:11.755Z,29.63
2023-01-19T21:59:38.178Z,30.73
2023-01-19T22:02:04.801Z,28.88
2023-01-19T22:04:31.253Z,24.95
2023-01-19T22:06:57.749Z,28.52
2023-01-19T22:09:24.166Z,29.85
2023-01-19T22:11:50.540Z,34.15
2023-01-19T22:14:16.985Z,30.38
2023-01-19T22:16:43.490Z,27.95
2023-01-19T22:19:12.584Z,29.95
2023-01-19T22:21:39.671Z,32.50
2023-01-19T22:24:06.615Z,36.90
2023-01-19T22:26:34.154Z,39.13
2023-01-19T22:29:01.416Z,37.58
2023-01-19T22:31:28.839Z,29.90
2023-01-19T22:33:55.566Z,34.88
2023-01-19T22:36:30.075Z,31.25
2023-01-19T22:39:02.543Z,33.10
2023-01-19T22:41:34.026Z,34.00
2023-01-19T22:44:05.491Z,37.00
2023-01-19T22:46:33.339Z,30.60
2023-01-19T22:49:00.340Z,37.95
2023-01-19T22:51:28.259Z,44.20
2023-01-19T22:53:54.955Z,40.72
2023-01-19T22:56:26.047Z,36.78
2023-01-19T22:58:52.790Z,41.63
2023-01-19T23:01:24.229Z,41.88
2023-01-19T23:03:51.620Z,42.10
2023-01-19T23:06:22.780Z,44.45
2023-01-19T23:08:49.467Z,29.83
2023-01-19T23:11:18.394Z,39.42
2023-01-19T23:13:45.154Z,44.83
2023-01-19T23:16:12.672Z,39.58
2023-01-19T23:18:40.080Z,33.13
2023-01-19T23:21:15.194Z,42.95
2023-01-19T23:23:41.837Z,46.95
2023-01-19T23:26:17.177Z,40.45
2023-01-19T23:28:44.554Z,36.80
2023-01-19T23:31:25.447Z,39.17
2023-01-19T23:33:54.220Z,27.70
2023-01-19T23:36:22.563Z,45.78
2023-01-19T23:38:57.059Z,35.35
2023-01-19T23:41:24.522Z,38.53
2023-01-19T23:43:51.696Z,43.60
2023-01-19T23:46:18.714Z,41.58
2023-01-19T23:48:46.700Z,45.53
2023-01-19T23:51:15.893Z,43.53
2023-01-19T23:53:42.458Z,45.45
2023-01-19T23:56:22.861Z,40.85
2023-01-19T23:58:59.701Z,35.85
